Hidden Valley, Valles Caldera, New Mexico Weather observations

Data are for 10 minute period ending at time listed.
 Day   Time   Solar   Ave.   Ave.  Ave.  Vector  Max.   Baro.   Total    
  of    of     Rad.   Air    Rel.  Wind   Wind   Wind  Press.  Precip.   
Year   Day            Temp.  Hum.  Speed  Dir.   Gust                    
2017   (MST)  Kw/m2    F      %     mph   deg.    mph    mb.     in.     
-------------------------------------------------------------------------
 173    6:30   0.25   49.6    75    0.7   318     1.2   748.8    0.00 
 173    6:40   0.28   53.8    67    0.1    12     1.1   748.7    0.00 
 173    6:50   0.29   57.8    61    0.2   108     0.8   748.7    0.00 
 173    7:00   0.26   59.1    57    0.6   168     1.1   748.6    0.00 
 173    7:10   0.10   58.0    62    1.3    14     2.0   748.8    0.00 
 173    7:20   0.26   56.6    66    0.7    24     1.4   748.7    0.00 
 173    7:30   0.44   60.6    57    0.6    34     1.2   748.6    0.00 
 173    7:40   0.48   63.1    52    0.4    57     1.3   748.6    0.00 
 173    7:50   0.51   65.3    48    0.4   106     1.3   748.6    0.00 
 173    8:00   0.54   67.1    46    0.5   144     1.2   748.5    0.00 
 173    8:10   0.58   68.7    44    0.4    77     1.4   748.4    0.00 
 173    8:20   0.61   71.0    38    0.3    72     1.2   748.4    0.00 
 173    8:30   0.64   72.3    37    0.9    21     1.8   748.3    0.00 
 173    8:40   0.67   73.3    34    1.3    20     2.3   748.3    0.00 
 173    8:50   0.70   75.0    33    1.3     8     2.5   748.2    0.00 
 173    9:00   0.73   76.4    28    1.8   183     5.2   748.1    0.00 
 173    9:10   0.76   76.9    26    3.2   230     5.6   748.0    0.00 
 173    9:20   0.78   77.6    26    3.0   210     6.2   748.0    0.00 
 173    9:30   0.81   78.1    24    3.2   214     7.9   748.0    0.00 
 173    9:40   0.83   78.1    24    4.1   204     6.5   748.0    0.00 
 173    9:50   0.85   78.6    22    3.1   215     6.1   748.1    0.00 
 173   10:00   0.88   79.1    21    2.3   244     5.5   748.1    0.00 
 173   10:10   0.91   79.8    20    2.7   253     6.8   748.1    0.00 
 173   10:20   0.93   79.4    20    2.7   239     5.4   748.1    0.00 
 173   10:30   0.97   80.1    21    2.1   246     5.6   748.1    0.00 
 173   10:40   1.03   80.3    20    3.4   236     7.8   748.1    0.00 
 173   10:50   0.62   79.3    21    2.7   311     7.7   748.1    0.00 
 173   11:00   0.83   78.5    22    3.2   215     5.7   748.1    0.00 
 173   11:10   0.67   79.2    20    2.0   157     5.1   748.0    0.00 
 173   11:20   0.63   79.9    19    3.0   322     7.3   747.9    0.00 
 173   11:30   1.08   80.1    17    2.4   274     5.5   747.9    0.00 
 173   11:40   1.08   82.0    16    2.3   224     6.8   747.8    0.00 
 173   11:50   1.16   81.8    16    3.8   273     7.6   747.9    0.00 
 173   12:00   0.85   80.7    18    3.1    29     6.7   747.9    0.00 
 173   12:10   1.17   80.1    24    5.1    58     7.5   747.9    0.00 
 173   12:20   0.85   79.0    23    3.7    38     6.5   747.9    0.00 
 173   12:30   0.30   76.6    24    2.0    52     3.7   747.9    0.00 
 173   12:40   1.03   78.0    23    2.0   113     7.5   747.6    0.00 
 173   12:50   0.43   78.5    21    0.9   122     2.3   747.5    0.00 
 173   13:00   0.22   77.0    24    1.6   199     3.6   747.5    0.00 
 173   13:10   0.23   76.2    27    1.5   184     3.1   747.4    0.00 
 173   13:20   0.56   77.5    25    1.1   182     2.7   747.4    0.00 
 173   13:30   0.83   80.7    18    3.9   229     9.2   747.3    0.00 
 173   13:40   1.10   82.2    16    3.0   263     6.9   747.2    0.00 
 173   13:50   0.95   82.9    15    2.8   282     9.4   747.0    0.00 
 173   14:00   0.67   81.8    15    3.9   260     8.7   747.1    0.00 
 173   14:10   0.94   82.1    15    2.6   257     6.9   747.0    0.00 
 173   14:20   0.78   83.4    14    2.9   292     7.9   746.8    0.00 
 173   14:30   0.48   80.7    14    4.0   274    10.5   746.8    0.00 
 173   14:40   0.95   82.6    14    3.6   289     9.9   746.8    0.00 
 173   14:50   0.39   81.9    13    2.1   296     7.7   746.7    0.00 
 173   15:00   0.90   82.6    14    2.5   321     6.4   746.7    0.00 
 173   15:10   0.88   83.1    12    3.3   276     9.9   746.7    0.00 
 173   15:20   0.24   81.3    13    3.0   284     7.4   746.6    0.00 
 173   15:30   0.65   81.8    14    3.4   324     9.1   746.5    0.00 
 173   15:40   0.72   82.1    12    3.4   274     8.7   746.6    0.00 
 173   15:50   0.65   82.1    13    3.6   332     7.9   746.4    0.00 
 173   16:00   0.54   82.1    12    4.5   292    11.2   746.3    0.00 
 173   16:10   0.52   81.5    13    1.8   322     6.1   746.3    0.00 
 173   16:20   0.58   82.7    12    3.8   313     9.1   746.2    0.00 
 173   16:30   0.29   81.1    12    2.1   311     5.3   746.1    0.00 
 173   16:40   0.57   82.7    13    2.8   247     7.5   746.0    0.00 
 173   16:50   0.49   82.0    12    4.4   283     9.8   746.1    0.00 
 173   17:00   0.47   82.0    13    2.5   315     7.5   746.1    0.00 
 173   17:10   0.43   82.0    13    2.6   333     5.9   746.0    0.00 
 173   17:20   0.39   82.2    12    2.2   297     6.6   746.0    0.00 
 173   17:30   0.34   81.6    13    2.6   319    10.7   746.0    0.00 
 173   17:40   0.30   82.0    13    1.5   290     5.3   746.0    0.00 
 173   17:50   0.28   80.9    12    2.9   268     6.6   746.0    0.00 
 173   18:00   0.21   79.7    13    3.4   352     7.4   746.0    0.00 
 173   18:10   0.20   79.1    13    2.1   287     5.7   746.0    0.00 
 173   18:20   0.17   78.9    13    2.9   294     5.7   746.0    0.00 
 173   18:30   0.07   77.3    14    1.1   256     2.7   746.0    0.00 
 173   18:40   0.04   77.0    13    1.2   294     3.7   746.0    0.00 
 173   18:50   0.03   74.6    16    1.4   274     2.9   746.1    0.00 
 173   19:00   0.02   72.6    17    1.0   223     2.9   746.2    0.00 
 173   19:10   0.02   72.8    17    1.3   313     2.8   746.2    0.00 
 173   19:20   0.01   70.0    20    1.3   251     2.5   746.3    0.00 
 173   19:30   0.01   68.1    21    1.1   270     2.9   746.4    0.00 
 173   19:40   0.00   69.0    19    1.4   284     3.5   746.5    0.00 
 173   19:50   0.00   70.4    16    1.1   269     2.5   746.6    0.00 
 173   20:00   0.00   68.9    18    1.1   273     2.8   746.7    0.00 
 173   20:10   0.00   68.9    17    1.5   291     2.7   746.8    0.00 
 173   20:20   0.00   58.1    31    0.9    89     1.6   746.9    0.00 
 173   20:30   0.00   54.8    35    0.5   157     1.7   747.1    0.00 
 173   20:40   0.00   55.4    35    0.5   333     1.3   747.2    0.00 
 173   20:50   0.00   51.2    44    0.6   350     1.6   747.3    0.00 
 173   21:00   0.00   47.2    55    0.3    10     1.5   747.5    0.00 
 173   21:10   0.00   45.1    60    0.4    12     1.0   747.6    0.00 
 173   21:20   0.00   42.6    62    0.1   124     0.5   747.7    0.00 
 173   21:30   0.00   42.5    67    0.2   284     0.7   747.7    0.00 
 173   21:40   0.00   40.4    71    0.2     0     0.9   747.8    0.00 
 173   21:50   0.00   39.5    80    0.3   264     0.9   747.8    0.00 
 173   22:00   0.00   38.9    79    0.4   270     1.1   747.8    0.00 
 173   22:10   0.00   38.3    78    0.6    56     2.0   747.8    0.00 
 173   22:20   0.00   38.0    79    0.8   344     1.5   747.8    0.00 
 173   22:30   0.00   36.6    80    0.7   109     1.5   747.8    0.00 
 173   22:40   0.00   35.4    82    0.3    79     1.0   747.9    0.00 
 173   22:50   0.00   33.9    86    0.8   351     2.0   747.9    0.00 
 173   23:00   0.00   33.9    86    0.4   102     2.0   747.9    0.00 
 173   23:10   0.00   34.2    84    0.6   262     1.6   747.9    0.00 
 173   23:20   0.00   34.5    81    0.7   137     1.9   747.9    0.00 
 173   23:30   0.00   32.7    87    0.6   359     1.7   747.9    0.00 
 173   23:40   0.00   32.0    88    0.7    12     1.4   747.9    0.00 
 173   23:50   0.00   31.1    89    1.1    17     2.4   747.9    0.00 
 174    0:00   0.00   31.2    90    0.2   155     1.2   747.9    0.00 
 174    0:10   0.00   30.7    89    0.3    73     0.8   748.0    0.00 
 174    0:20   0.00   30.5    92    0.2   274     0.8   748.0    0.00 
 174    0:30   0.00   30.0    92    0.4    23     1.1   748.0    0.00 
 174    0:40   0.00   29.1    93    0.4   114     1.0   747.9    0.00 
 174    0:50   0.00   29.1    94    0.7    20     1.7   747.9    0.00 
 174    1:00   0.00   28.6    94    0.7   332     1.5   747.9    0.00 
 174    1:10   0.00   29.1    93    0.1   146     0.6   747.9    0.00 
 174    1:20   0.00   28.4    93    0.2   325     0.8   747.9    0.00 
 174    1:30   0.00   28.1    95    0.0   127     0.5   747.9    0.00 
 174    1:40   0.00   28.2    96    0.0   127     0.3   747.9    0.00 
 174    1:50   0.00   28.2    98    0.0   239     0.5   747.9    0.00 
 174    2:00   0.00   28.1    99    0.5    52     1.1   747.9    0.00 
 174    2:10   0.00   27.2    97    0.8     9     1.5   747.9    0.00 
 174    2:20   0.00   26.8    97    0.3   351     1.2   748.0    0.00 
 174    2:30   0.00   27.1    99    0.5     9     1.3   748.0    0.00 
 174    2:40   0.00   27.1    98    0.1   279     0.4   748.1    0.00 
 174    2:50   0.00   26.9    98    0.2   146     0.8   748.1    0.00 
 174    3:00   0.00   26.7    97    0.2   308     0.8   748.1    0.00 
 174    3:10   0.00   26.2    98    0.5   323     1.2   748.2    0.00 
 174    3:20   0.00   26.5    99    0.4   166     0.8   748.2    0.00 
 174    3:30   0.00   26.1    98    0.8     3     1.7   748.2    0.00 
 174    3:40   0.00   25.1    97    0.3    29     1.8   748.3    0.00 
 174    3:50   0.00   25.8    98    0.3   305     0.8   748.3    0.00 
 174    4:00   0.00   25.7    96    0.6   336     1.6   748.4    0.00 
 174    4:10   0.00   25.8    94    0.2    93     0.9   748.5    0.00 
 174    4:20   0.00   26.0    95    0.3   102     0.8   748.6    0.00 
 174    4:30   0.00   26.9    94    0.4   108     0.9   748.7    0.00 
 174    4:40   0.00   26.5    92    0.1   237     0.9   748.7    0.00 
 174    4:50   0.00   26.6    96    0.1   102     0.7   748.9    0.00 
 174    5:00   0.00   26.6    93    0.6   326     1.3   749.0    0.00 
 174    5:10   0.01   26.2    95    0.1   156     0.7   749.1    0.00 
 174    5:20   0.02   26.7    98    0.2   160     0.6   749.1    0.00 
 174    5:30   0.03   26.8    95    0.2   156     0.6   749.2    0.00 
 174    5:40   0.05   26.4    94    0.4    30     0.8   749.3    0.00 
 174    5:50   0.06   27.1    94    0.1   354     0.7   749.4    0.00 
 174    6:00   0.09   28.1    92    0.1   347     0.8   749.5    0.00 
 174    6:10   0.11   30.2    89    0.0    28     0.5   749.5    0.00 
 174    6:20   0.11   31.4    88    0.5   358     1.0   749.6    0.00 

Return to Hidden Valley, Valles Caldera graphs page.


Western Regional Climate Center,wrcc@dri.edu